Time;durP1;ratioP1;P1;durP2;ratioP2;P2;SDS_P1;SDS_P2;PMS_P1;PMS_P2;Temp;Humidity;BMP_temperature;BMP_pressure;BME280_temperature;BME280_humidity;BME280_pressure;Samples;Min_cycle;Max_cycle;Signal;HPM_P1;HPM_P2
2023/07/03 00:00:54;;;;;;;;;;;13.10;69.90;;;;;;4039441;29;19919;-81
2023/07/03 00:02:55;;;;;;;;;;;13.10;70.00;;;;;;4028539;29;19940;-81
2023/07/03 00:04:56;;;;;;;;;;;13.10;69.60;;;;;;4043479;29;20151;-81
2023/07/03 00:06:56;;;;;;;;;;;13.10;70.10;;;;;;4059714;29;19915;-83
2023/07/03 00:08:57;;;;;;;;;;;13.20;70.70;;;;;;4042496;29;20006;-82
2023/07/03 00:11:01;;;;;;;;;;;13.10;69.80;;;;;;4043993;29;19911;-81
2023/07/03 00:13:01;;;;;;;;;;;13.20;69.80;;;;;;4048483;29;20291;-80
2023/07/03 00:15:02;;;;;;;;;;;13.20;70.00;;;;;;4029871;29;19924;-82
2023/07/03 00:17:03;;;;;;;;;;;13.20;69.90;;;;;;4043647;29;19924;-84
2023/07/03 00:19:13;;;;;;;;;;;13.20;69.90;;;;;;4033560;29;19916;-84
2023/07/03 00:21:14;;;;;;;;;;;13.30;70.20;;;;;;4043639;29;19916;-81
2023/07/03 00:23:14;;;;;;;;;;;13.20;70.00;;;;;;4047737;29;19919;-81
2023/07/03 00:25:15;;;;;;;;;;;13.20;70.00;;;;;;4046691;29;19916;-81
2023/07/03 00:27:17;;;;;;;;;;;13.30;70.20;;;;;;4060809;29;19954;-82
2023/07/03 00:29:37;;;;;;;;;;;13.20;70.00;;;;;;4046839;29;20014;-81
2023/07/03 00:31:58;;;;;;;;;;;13.30;70.40;;;;;;4056762;29;19915;-83
2023/07/03 00:34:19;;;;;;;;;;;13.20;70.50;;;;;;4061706;29;19934;-81
2023/07/03 00:36:39;;;;;;;;;;;13.20;70.20;;;;;;4061228;29;20018;-81
2023/07/03 00:39:00;;;;;;;;;;;13.20;70.50;;;;;;4060947;29;19923;-81
2023/07/03 00:41:20;;;;;;;;;;;13.20;70.50;;;;;;4045746;29;19924;-82
2023/07/03 00:43:41;;;;;;;;;;;13.20;70.60;;;;;;4046957;29;20383;-81
2023/07/03 00:46:03;;;;;;;;;;;13.20;71.00;;;;;;4061551;29;19929;-83
2023/07/03 00:48:23;;;;;;;;;;;13.20;70.80;;;;;;4062527;29;19930;-81
2023/07/03 00:50:44;;;;;;;;;;;13.20;70.50;;;;;;4060283;29;19923;-80
2023/07/03 00:53:05;;;;;;;;;;;13.20;70.70;;;;;;4045768;29;19920;-82
2023/07/03 00:55:25;;;;;;;;;;;13.20;70.40;;;;;;4045967;29;19926;-83
2023/07/03 00:57:46;;;;;;;;;;;13.10;70.50;;;;;;4038864;29;19924;-81
2023/07/03 01:00:09;;;;;;;;;;;13.10;70.90;;;;;;4057469;29;20406;-82
2023/07/03 01:02:48;;;;;;;;;;;13.10;70.60;;;;;;4055405;29;20003;-81
2023/07/03 01:04:53;;;;;;;;;;;13.10;70.70;;;;;;4043731;29;19927;-81
2023/07/03 01:06:56;;;;;;;;;;;13.10;70.70;;;;;;4041534;29;19923;-81
2023/07/03 01:09:01;;;;;;;;;;;13.10;70.90;;;;;;4044736;29;20300;-81
2023/07/03 01:11:22;;;;;;;;;;;13.00;71.20;;;;;;4047333;29;19920;-82
2023/07/03 01:13:43;;;;;;;;;;;13.00;71.00;;;;;;4059963;29;19911;-81
2023/07/03 01:15:44;;;;;;;;;;;13.00;70.80;;;;;;4044458;29;19943;-81
2023/07/03 01:18:06;;;;;;;;;;;13.00;70.60;;;;;;4059353;29;19943;-81
2023/07/03 01:20:30;;;;;;;;;;;13.00;70.80;;;;;;4046785;29;19919;-82
2023/07/03 01:22:57;;;;;;;;;;;12.90;71.00;;;;;;4048384;29;19926;-81
2023/07/03 01:25:19;;;;;;;;;;;12.90;71.50;;;;;;4059731;29;19922;-82
2023/07/03 01:27:42;;;;;;;;;;;12.90;71.70;;;;;;4057496;29;19930;-82
2023/07/03 01:30:06;;;;;;;;;;;13.00;72.20;;;;;;4047796;29;20438;-83
2023/07/03 01:32:31;;;;;;;;;;;12.90;71.80;;;;;;4044235;29;19924;-81
2023/07/03 01:34:53;;;;;;;;;;;12.90;71.20;;;;;;4058315;29;19919;-82
2023/07/03 01:37:14;;;;;;;;;;;13.00;70.90;;;;;;4047179;29;19979;-83
2023/07/03 01:39:35;;;;;;;;;;;12.90;71.20;;;;;;4046265;29;19923;-82
2023/07/03 01:41:56;;;;;;;;;;;13.00;71.90;;;;;;4057043;29;19919;-84
2023/07/03 01:44:18;;;;;;;;;;;12.90;72.00;;;;;;4062347;29;19911;-83
2023/07/03 01:46:38;;;;;;;;;;;12.90;71.70;;;;;;4058442;29;19923;-82
2023/07/03 01:48:59;;;;;;;;;;;12.90;71.40;;;;;;4060452;29;20018;-82
2023/07/03 01:51:25;;;;;;;;;;;13.00;71.40;;;;;;4044996;29;20007;-82
2023/07/03 01:54:01;;;;;;;;;;;13.00;71.30;;;;;;4059444;29;19927;-82
2023/07/03 01:56:24;;;;;;;;;;;13.00;71.30;;;;;;4059523;29;19925;-82
2023/07/03 01:58:34;;;;;;;;;;;13.10;71.40;;;;;;4044620;29;19919;-82
2023/07/03 02:00:49;;;;;;;;;;;13.00;71.20;;;;;;4057940;29;19971;-82
2023/07/03 02:02:52;;;;;;;;;;;13.00;71.40;;;;;;4044846;29;19923;-82
2023/07/03 02:05:04;;;;;;;;;;;13.00;72.10;;;;;;4059754;29;19966;-82
2023/07/03 02:07:09;;;;;;;;;;;13.00;71.90;;;;;;4045898;29;19916;-81
2023/07/03 02:09:10;;;;;;;;;;;13.00;71.80;;;;;;4048156;29;20193;-82
2023/07/03 02:11:15;;;;;;;;;;;13.00;71.70;;;;;;4041227;29;19979;-82
2023/07/03 02:13:16;;;;;;;;;;;13.00;71.70;;;;;;4059060;29;19924;-82
2023/07/03 02:15:16;;;;;;;;;;;13.00;71.60;;;;;;4045598;29;19966;-82
2023/07/03 02:17:17;;;;;;;;;;;13.00;71.70;;;;;;4062669;29;19923;-81
2023/07/03 02:19:28;;;;;;;;;;;13.00;71.80;;;;;;4045190;29;19916;-83
2023/07/03 02:21:29;;;;;;;;;;;13.10;71.70;;;;;;4042803;29;19919;-81
2023/07/03 02:23:29;;;;;;;;;;;12.90;71.60;;;;;;4030882;29;20622;-81
2023/07/03 02:25:32;;;;;;;;;;;12.90;71.90;;;;;;4032211;29;19915;-82
2023/07/03 02:27:33;;;;;;;;;;;12.90;72.40;;;;;;4058450;29;19955;-82
2023/07/03 02:29:33;;;;;;;;;;;12.90;72.40;;;;;;4030780;29;20368;-82
2023/07/03 02:31:34;;;;;;;;;;;12.90;72.30;;;;;;4029472;29;19924;-82
2023/07/03 02:33:34;;;;;;;;;;;12.90;72.10;;;;;;4043333;29;19911;-82
2023/07/03 02:35:36;;;;;;;;;;;12.90;71.80;;;;;;4046184;29;20037;-81
2023/07/03 02:37:36;;;;;;;;;;;12.90;72.10;;;;;;4026961;29;19923;-82
2023/07/03 02:39:37;;;;;;;;;;;12.90;72.20;;;;;;4044793;29;19951;-82
2023/07/03 02:41:38;;;;;;;;;;;12.90;72.10;;;;;;4033987;29;19958;-82
2023/07/03 02:43:38;;;;;;;;;;;12.90;72.50;;;;;;4044238;29;19916;-82
2023/07/03 02:45:40;;;;;;;;;;;12.90;72.30;;;;;;4026955;29;20472;-82
2023/07/03 02:47:40;;;;;;;;;;;12.80;72.30;;;;;;4015133;29;19972;-83
2023/07/03 02:49:42;;;;;;;;;;;12.70;71.90;;;;;;4030462;29;19926;-81
2023/07/03 02:51:42;;;;;;;;;;;12.80;71.80;;;;;;4047340;29;20435;-83
2023/07/03 02:53:43;;;;;;;;;;;12.70;72.30;;;;;;4042428;29;19924;-82
2023/07/03 02:55:44;;;;;;;;;;;12.80;72.80;;;;;;4044283;29;19919;-82
2023/07/03 02:57:44;;;;;;;;;;;12.70;72.50;;;;;;4044018;29;19923;-83
2023/07/03 02:59:45;;;;;;;;;;;12.80;72.90;;;;;;4045116;29;19944;-83
2023/07/03 03:01:46;;;;;;;;;;;12.70;72.40;;;;;;4030533;29;19923;-83
2023/07/03 03:03:46;;;;;;;;;;;12.80;72.80;;;;;;4044514;29;19930;-82
2023/07/03 03:05:47;;;;;;;;;;;12.70;73.10;;;;;;4043813;29;20856;-80
2023/07/03 03:07:47;;;;;;;;;;;12.80;73.10;;;;;;4028621;29;20412;-81
2023/07/03 03:09:48;;;;;;;;;;;12.70;73.30;;;;;;4045510;29;20084;-80
2023/07/03 03:11:49;;;;;;;;;;;12.70;73.10;;;;;;4030631;29;19985;-80
2023/07/03 03:13:50;;;;;;;;;;;12.80;73.20;;;;;;4044024;29;20018;-81
2023/07/03 03:15:51;;;;;;;;;;;12.70;73.00;;;;;;4033664;29;19927;-81
2023/07/03 03:17:51;;;;;;;;;;;12.70;72.80;;;;;;4048849;29;20003;-81
2023/07/03 03:19:52;;;;;;;;;;;12.60;72.60;;;;;;4031212;29;19916;-81
2023/07/03 03:21:53;;;;;;;;;;;12.60;73.20;;;;;;4028833;29;20015;-80
2023/07/03 03:23:54;;;;;;;;;;;12.60;72.50;;;;;;4034949;29;19923;-79
2023/07/03 03:25:54;;;;;;;;;;;12.60;72.60;;;;;;4034142;29;20400;-80
2023/07/03 03:27:55;;;;;;;;;;;12.60;72.50;;;;;;4019625;29;19988;-81
2023/07/03 03:29:56;;;;;;;;;;;12.60;72.50;;;;;;4043387;29;19923;-81
2023/07/03 03:31:59;;;;;;;;;;;12.60;72.50;;;;;;4045277;29;19920;-80
2023/07/03 03:34:03;;;;;;;;;;;12.50;72.50;;;;;;4067836;29;20407;-80
2023/07/03 03:36:04;;;;;;;;;;;12.50;72.40;;;;;;4035095;29;19967;-82
2023/07/03 03:38:04;;;;;;;;;;;12.50;72.40;;;;;;4064236;29;19919;-79
2023/07/03 03:40:08;;;;;;;;;;;12.40;72.50;;;;;;4044231;29;19968;-82
2023/07/03 03:42:09;;;;;;;;;;;12.50;72.50;;;;;;4065748;29;19923;-83
2023/07/03 03:44:10;;;;;;;;;;;12.50;72.60;;;;;;4064465;29;19919;-82
2023/07/03 03:46:10;;;;;;;;;;;12.50;72.80;;;;;;4044406;29;19948;-80
2023/07/03 03:48:11;;;;;;;;;;;12.30;73.00;;;;;;4061499;29;19929;-81
2023/07/03 03:50:11;;;;;;;;;;;12.40;73.40;;;;;;4066152;29;19994;-81
2023/07/03 03:52:12;;;;;;;;;;;12.40;73.00;;;;;;4032736;29;19920;-81
2023/07/03 03:54:13;;;;;;;;;;;12.50;73.10;;;;;;4061356;29;19960;-81
2023/07/03 03:56:14;;;;;;;;;;;12.40;73.00;;;;;;4045044;29;19915;-83
2023/07/03 03:58:15;;;;;;;;;;;12.60;73.20;;;;;;4044980;29;20373;-80
2023/07/03 04:00:16;;;;;;;;;;;12.50;73.20;;;;;;4061568;29;19920;-80
2023/07/03 04:02:17;;;;;;;;;;;12.50;73.30;;;;;;4050360;29;20431;-81
2023/07/03 04:04:18;;;;;;;;;;;12.50;73.40;;;;;;4052040;29;20010;-80
2023/07/03 04:06:18;;;;;;;;;;;12.60;73.50;;;;;;4048621;29;19967;-81
2023/07/03 04:08:19;;;;;;;;;;;12.60;73.20;;;;;;4067659;29;19917;-82
2023/07/03 04:10:20;;;;;;;;;;;12.50;72.90;;;;;;4065210;29;19923;-82
2023/07/03 04:12:32;;;;;;;;;;;12.50;72.70;;;;;;4063368;29;20191;-81
2023/07/03 04:14:52;;;;;;;;;;;12.60;72.90;;;;;;4065454;29;20455;-82
2023/07/03 04:17:13;;;;;;;;;;;12.60;73.00;;;;;;4052166;29;20434;-81
2023/07/03 04:19:33;;;;;;;;;;;12.70;73.10;;;;;;4064540;29;20392;-80
2023/07/03 04:21:54;;;;;;;;;;;12.60;73.30;;;;;;4053760;29;20006;-81
2023/07/03 04:24:14;;;;;;;;;;;12.60;73.70;;;;;;4063352;29;20491;-81
2023/07/03 04:26:38;;;;;;;;;;;12.70;73.70;;;;;;4061227;29;20376;-81
2023/07/03 04:28:58;;;;;;;;;;;12.70;73.50;;;;;;4046838;29;20396;-81
2023/07/03 04:31:22;;;;;;;;;;;12.80;73.40;;;;;;4063658;29;20493;-82
2023/07/03 04:33:45;;;;;;;;;;;12.70;73.50;;;;;;4061385;29;20379;-80
2023/07/03 04:36:05;;;;;;;;;;;12.80;73.50;;;;;;4059181;29;19923;-82
2023/07/03 04:38:26;;;;;;;;;;;12.60;73.30;;;;;;4063505;29;20399;-82
2023/07/03 04:40:46;;;;;;;;;;;12.80;73.50;;;;;;4062749;29;19994;-81
2023/07/03 04:43:08;;;;;;;;;;;12.80;73.70;;;;;;4064411;29;19962;-81
2023/07/03 04:45:30;;;;;;;;;;;12.90;74.00;;;;;;4052666;29;20498;-81
2023/07/03 04:47:51;;;;;;;;;;;13.00;74.70;;;;;;4064518;29;20419;-81
2023/07/03 04:50:14;;;;;;;;;;;13.00;75.00;;;;;;4063247;29;20311;-81
2023/07/03 04:52:16;;;;;;;;;;;13.10;75.00;;;;;;4047856;29;20327;-82
2023/07/03 04:54:17;;;;;;;;;;;13.10;75.50;;;;;;4063026;29;20369;-81
2023/07/03 04:56:17;;;;;;;;;;;13.20;75.60;;;;;;4065405;29;19919;-81
2023/07/03 04:58:18;;;;;;;;;;;13.30;75.20;;;;;;4051230;29;20038;-81
2023/07/03 05:00:19;;;;;;;;;;;13.30;74.80;;;;;;4060722;29;19915;-82
2023/07/03 05:02:20;;;;;;;;;;;13.40;74.50;;;;;;4048088;29;20011;-81
2023/07/03 05:04:22;;;;;;;;;;;13.40;74.10;;;;;;4062205;29;20383;-82
2023/07/03 05:06:23;;;;;;;;;;;13.50;73.90;;;;;;4062771;29;20276;-82
2023/07/03 05:08:24;;;;;;;;;;;13.50;73.60;;;;;;4061707;29;19934;-80
2023/07/03 05:10:25;;;;;;;;;;;13.50;73.30;;;;;;4040733;29;20537;-81
2023/07/03 05:12:26;;;;;;;;;;;13.50;73.10;;;;;;4048962;29;19968;-81
2023/07/03 05:14:26;;;;;;;;;;;13.50;73.00;;;;;;4063870;29;19920;-81
2023/07/03 05:16:27;;;;;;;;;;;13.50;72.90;;;;;;4064983;29;20336;-81
2023/07/03 05:18:28;;;;;;;;;;;13.50;73.10;;;;;;4062520;29;19919;-84
2023/07/03 05:20:29;;;;;;;;;;;13.50;73.30;;;;;;4053908;29;20002;-83
2023/07/03 05:22:33;;;;;;;;;;;13.50;73.60;;;;;;4047963;29;19919;-81
2023/07/03 05:24:34;;;;;;;;;;;13.60;74.10;;;;;;4062466;29;19971;-82
2023/07/03 05:26:39;;;;;;;;;;;13.60;74.50;;;;;;4061961;29;19911;-81
2023/07/03 05:28:40;;;;;;;;;;;13.70;75.40;;;;;;4048494;29;20046;-82
2023/07/03 05:30:41;;;;;;;;;;;13.70;75.30;;;;;;4061602;29;19927;-81
2023/07/03 05:32:41;;;;;;;;;;;13.90;75.70;;;;;;4053666;29;20015;-81
2023/07/03 05:34:42;;;;;;;;;;;13.90;75.80;;;;;;4063237;29;19951;-81
2023/07/03 05:36:42;;;;;;;;;;;13.90;76.30;;;;;;4064861;29;19919;-81
2023/07/03 05:38:46;;;;;;;;;;;13.90;76.10;;;;;;4047328;29;19912;-82
2023/07/03 05:40:49;;;;;;;;;;;14.10;76.20;;;;;;4062850;29;21974;-82
2023/07/03 05:42:50;;;;;;;;;;;14.10;76.20;;;;;;4064399;29;19955;-81
2023/07/03 05:44:50;;;;;;;;;;;14.10;76.20;;;;;;4061870;29;19947;-81
2023/07/03 05:46:51;;;;;;;;;;;14.20;76.10;;;;;;4053112;29;19919;-82
2023/07/03 05:48:52;;;;;;;;;;;14.20;75.80;;;;;;4066899;29;19915;-82
2023/07/03 05:50:52;;;;;;;;;;;14.30;75.80;;;;;;4063430;29;19919;-81
2023/07/03 05:52:53;;;;;;;;;;;14.40;75.60;;;;;;4064571;29;20031;-82
2023/07/03 05:54:54;;;;;;;;;;;14.50;75.70;;;;;;4048849;29;19918;-82
2023/07/03 05:56:55;;;;;;;;;;;14.50;75.90;;;;;;4067332;29;19957;-81
2023/07/03 05:58:56;;;;;;;;;;;14.60;76.30;;;;;;4065482;29;20432;-81
2023/07/03 06:00:58;;;;;;;;;;;14.60;76.50;;;;;;4063119;29;19922;-82
2023/07/03 06:03:02;;;;;;;;;;;14.60;76.20;;;;;;4060055;29;19919;-82
2023/07/03 06:05:02;;;;;;;;;;;14.70;76.20;;;;;;4048645;29;20388;-82
2023/07/03 06:07:03;;;;;;;;;;;14.70;76.40;;;;;;4064355;29;19917;-82
2023/07/03 06:09:03;;;;;;;;;;;14.80;76.20;;;;;;4047810;29;19915;-81
2023/07/03 06:11:07;;;;;;;;;;;14.90;76.10;;;;;;4044564;29;19922;-82
2023/07/03 06:13:07;;;;;;;;;;;15.00;76.00;;;;;;4033187;29;20502;-83
2023/07/03 06:15:08;;;;;;;;;;;15.10;75.80;;;;;;4050880;29;19916;-82
2023/07/03 06:17:11;;;;;;;;;;;15.10;75.50;;;;;;4051185;29;20431;-81
2023/07/03 06:19:12;;;;;;;;;;;15.30;74.50;;;;;;4065469;29;19995;-82
2023/07/03 06:21:13;;;;;;;;;;;15.20;74.50;;;;;;4059995;29;20356;-83
2023/07/03 06:23:13;;;;;;;;;;;15.30;74.10;;;;;;4045474;29;19924;-82
2023/07/03 06:25:14;;;;;;;;;;;15.50;73.50;;;;;;4062803;29;19962;-83
2023/07/03 06:27:15;;;;;;;;;;;15.50;72.70;;;;;;4063411;29;19922;-82
2023/07/03 06:29:15;;;;;;;;;;;15.50;72.60;;;;;;4032885;29;20086;-82
2023/07/03 06:31:16;;;;;;;;;;;15.50;72.30;;;;;;4064813;29;20022;-82
2023/07/03 06:33:19;;;;;;;;;;;15.50;72.00;;;;;;4047761;29;20562;-83
2023/07/03 06:35:24;;;;;;;;;;;15.50;71.70;;;;;;4066776;29;21388;-82
2023/07/03 06:37:25;;;;;;;;;;;15.50;71.20;;;;;;4063376;29;19919;-83
2023/07/03 06:39:25;;;;;;;;;;;15.50;70.60;;;;;;4061939;29;19911;-82
2023/07/03 06:41:27;;;;;;;;;;;15.60;70.40;;;;;;4061923;29;19978;-84
2023/07/03 06:43:28;;;;;;;;;;;15.60;70.00;;;;;;4051187;29;19915;-84
2023/07/03 06:45:28;;;;;;;;;;;15.60;70.10;;;;;;4050703;29;20006;-83
2023/07/03 06:47:29;;;;;;;;;;;15.60;68.30;;;;;;4063870;29;20013;-84
2023/07/03 06:49:29;;;;;;;;;;;15.70;69.00;;;;;;4051816;29;19970;-83
2023/07/03 06:51:30;;;;;;;;;;;15.70;68.80;;;;;;4056744;29;19955;-82
2023/07/03 06:53:31;;;;;;;;;;;15.70;67.70;;;;;;4053028;29;20261;-83
2023/07/03 06:55:31;;;;;;;;;;;15.80;67.50;;;;;;4044712;29;19916;-82
2023/07/03 06:57:35;;;;;;;;;;;15.80;66.80;;;;;;4050958;29;19991;-83
2023/07/03 06:59:35;;;;;;;;;;;15.80;66.20;;;;;;4065164;29;20419;-84
2023/07/03 07:01:36;;;;;;;;;;;15.90;66.50;;;;;;4067016;29;19915;-84
2023/07/03 07:03:37;;;;;;;;;;;15.90;66.60;;;;;;4045464;29;19923;-84
2023/07/03 07:05:45;;;;;;;;;;;15.90;66.10;;;;;;4063720;29;19915;-84
2023/07/03 07:07:48;;;;;;;;;;;16.00;66.80;;;;;;4039997;29;20316;-84
2023/07/03 07:09:48;;;;;;;;;;;16.00;66.40;;;;;;4063578;29;20012;-83
2023/07/03 07:11:49;;;;;;;;;;;16.10;66.80;;;;;;4030248;29;19924;-83
2023/07/03 07:13:50;;;;;;;;;;;16.20;66.90;;;;;;4053018;29;19916;-85
2023/07/03 07:15:51;;;;;;;;;;;16.20;66.10;;;;;;4066901;29;19915;-84
2023/07/03 07:17:54;;;;;;;;;;;16.20;66.50;;;;;;4062700;29;20563;-84
2023/07/03 07:19:55;;;;;;;;;;;16.40;66.70;;;;;;4066393;29;19919;-82
2023/07/03 07:21:55;;;;;;;;;;;16.40;65.70;;;;;;4039859;29;19920;-83
2023/07/03 07:23:58;;;;;;;;;;;16.40;62.60;;;;;;4065538;29;19940;-81
2023/07/03 07:25:58;;;;;;;;;;;16.60;63.40;;;;;;4063606;29;20018;-84
2023/07/03 07:27:59;;;;;;;;;;;16.50;62.80;;;;;;4063424;29;20085;-84
2023/07/03 07:29:59;;;;;;;;;;;16.70;63.50;;;;;;4029354;29;19923;-85
2023/07/03 07:32:00;;;;;;;;;;;16.70;63.60;;;;;;4051376;29;19968;-83
2023/07/03 07:34:01;;;;;;;;;;;16.70;62.70;;;;;;4045740;29;20390;-82
2023/07/03 07:36:04;;;;;;;;;;;16.80;61.30;;;;;;4049399;29;19976;-83
2023/07/03 07:38:05;;;;;;;;;;;16.90;61.50;;;;;;4031840;29;19919;-82
2023/07/03 07:40:06;;;;;;;;;;;16.90;61.20;;;;;;4063952;29;19991;-81
2023/07/03 07:42:07;;;;;;;;;;;17.00;61.50;;;;;;4048673;29;19920;-84
2023/07/03 07:44:07;;;;;;;;;;;17.00;61.00;;;;;;4048562;29;19970;-84
2023/07/03 07:46:08;;;;;;;;;;;17.10;61.50;;;;;;4062172;29;19920;-83
2023/07/03 07:48:09;;;;;;;;;;;17.10;61.20;;;;;;4046459;29;20014;-84
2023/07/03 07:50:10;;;;;;;;;;;17.10;61.80;;;;;;4064824;29;19966;-86
2023/07/03 07:52:30;;;;;;;;;;;17.20;61.80;;;;;;4065015;29;20732;-84
2023/07/03 07:54:55;;;;;;;;;;;17.30;61.90;;;;;;4064486;29;19926;-84
2023/07/03 07:57:16;;;;;;;;;;;17.40;62.10;;;;;;4047085;29;19935;-84
2023/07/03 07:59:37;;;;;;;;;;;17.40;62.10;;;;;;4066681;29;19953;-84
2023/07/03 08:01:57;;;;;;;;;;;17.50;61.70;;;;;;4064853;29;19941;-85
2023/07/03 08:04:18;;;;;;;;;;;17.50;61.00;;;;;;4063987;29;20034;-84
2023/07/03 08:06:38;;;;;;;;;;;17.50;61.30;;;;;;4072927;29;19954;-84
2023/07/03 08:08:59;;;;;;;;;;;17.50;60.30;;;;;;4058384;29;19997;-83
2023/07/03 08:11:19;;;;;;;;;;;17.50;59.20;;;;;;4063934;29;19916;-82
2023/07/03 08:13:40;;;;;;;;;;;17.50;59.00;;;;;;4063587;29;19920;-82
2023/07/03 08:16:01;;;;;;;;;;;17.50;58.90;;;;;;4052710;29;19923;-84
2023/07/03 08:18:22;;;;;;;;;;;17.50;59.40;;;;;;4065300;29;19994;-82
2023/07/03 08:20:22;;;;;;;;;;;17.50;59.90;;;;;;4048292;29;19926;-82
2023/07/03 08:22:23;;;;;;;;;;;17.50;59.70;;;;;;4064016;29;20647;-83
2023/07/03 08:24:24;;;;;;;;;;;17.50;59.50;;;;;;4051546;29;19924;-81
2023/07/03 08:26:24;;;;;;;;;;;17.60;60.20;;;;;;4033371;29;19916;-83
2023/07/03 08:28:25;;;;;;;;;;;17.70;60.30;;;;;;4059593;29;20011;-84
2023/07/03 08:30:26;;;;;;;;;;;17.70;59.80;;;;;;4060838;29;19935;-82
2023/07/03 08:32:26;;;;;;;;;;;17.70;58.50;;;;;;4063912;29;19954;-83
2023/07/03 08:34:27;;;;;;;;;;;17.80;58.90;;;;;;4060395;29;19923;-84
2023/07/03 08:36:27;;;;;;;;;;;17.80;59.00;;;;;;4065965;29;20037;-83
2023/07/03 08:38:28;;;;;;;;;;;17.80;58.80;;;;;;4047027;29;19919;-82
2023/07/03 08:40:29;;;;;;;;;;;17.70;58.60;;;;;;4044679;29;19927;-83
2023/07/03 08:42:38;;;;;;;;;;;17.70;58.90;;;;;;4048603;29;19923;-83
2023/07/03 08:44:39;;;;;;;;;;;17.60;59.00;;;;;;4062815;29;19986;-83
2023/07/03 08:46:42;;;;;;;;;;;17.60;59.00;;;;;;4046238;29;20438;-83
2023/07/03 08:48:44;;;;;;;;;;;17.50;59.00;;;;;;4033560;29;19967;-82
2023/07/03 08:50:46;;;;;;;;;;;17.50;59.20;;;;;;4047619;29;19919;-82
2023/07/03 08:52:53;;;;;;;;;;;17.40;59.00;;;;;;4063706;29;19954;-83
2023/07/03 08:54:54;;;;;;;;;;;17.30;58.40;;;;;;4060697;29;20182;-82
2023/07/03 08:56:56;;;;;;;;;;;17.20;58.40;;;;;;4059280;29;19919;-82
2023/07/03 08:58:57;;;;;;;;;;;17.10;58.40;;;;;;4061414;29;19915;-83
2023/07/03 09:01:05;;;;;;;;;;;17.00;58.30;;;;;;4063415;29;19926;-83
2023/07/03 09:03:15;;;;;;;;;;;17.00;58.60;;;;;;4064896;29;19927;-81
2023/07/03 09:05:21;;;;;;;;;;;16.80;59.00;;;;;;4044896;29;19976;-83
2023/07/03 09:07:28;;;;;;;;;;;16.70;59.20;;;;;;4062468;29;19921;-83
2023/07/03 09:09:31;;;;;;;;;;;16.60;59.50;;;;;;4062094;29;19931;-82
2023/07/03 09:11:37;;;;;;;;;;;16.50;59.60;;;;;;4060641;29;19919;-83
2023/07/03 09:13:41;;;;;;;;;;;16.50;59.90;;;;;;4046071;29;20002;-83
2023/07/03 09:15:50;;;;;;;;;;;16.40;61.00;;;;;;4062758;29;20698;-81
2023/07/03 09:17:52;;;;;;;;;;;16.30;62.30;;;;;;4043755;29;19919;-82
2023/07/03 09:19:55;;;;;;;;;;;16.20;64.10;;;;;;4044156;29;19918;-82
2023/07/03 09:21:57;;;;;;;;;;;16.30;64.80;;;;;;4044843;29;19966;-83
2023/07/03 09:24:06;;;;;;;;;;;16.30;64.50;;;;;;4059433;29;19916;-82
2023/07/03 09:26:15;;;;;;;;;;;16.30;64.20;;;;;;4063906;29;19954;-81
2023/07/03 09:28:16;;;;;;;;;;;16.30;64.40;;;;;;4062205;29;20380;-84
2023/07/03 09:30:16;;;;;;;;;;;16.40;65.10;;;;;;4062251;29;19952;-82
2023/07/03 09:32:27;;;;;;;;;;;16.40;65.60;;;;;;4059449;29;20614;-82
2023/07/03 09:34:48;;;;;;;;;;;16.50;65.60;;;;;;4045954;29;19912;-83
2023/07/03 09:36:58;;;;;;;;;;;16.60;65.40;;;;;;4043477;29;19955;-83
2023/07/03 09:39:05;;;;;;;;;;;16.70;65.40;;;;;;4047786;29;19915;-84
2023/07/03 09:41:06;;;;;;;;;;;16.80;65.10;;;;;;4046627;29;19919;-82
2023/07/03 09:43:14;;;;;;;;;;;17.00;65.30;;;;;;4049327;29;19934;-83
2023/07/03 09:45:16;;;;;;;;;;;17.00;65.20;;;;;;4067093;29;20014;-82
2023/07/03 09:47:19;;;;;;;;;;;17.10;64.10;;;;;;4064021;29;19961;-82
2023/07/03 09:49:21;;;;;;;;;;;17.20;62.10;;;;;;4066545;29;19915;-81
2023/07/03 09:51:24;;;;;;;;;;;17.30;61.10;;;;;;4047103;29;19915;-82
2023/07/03 09:53:26;;;;;;;;;;;17.40;59.80;;;;;;4046918;29;19924;-82
2023/07/03 09:55:27;;;;;;;;;;;17.50;59.20;;;;;;4032539;29;19921;-84
2023/07/03 09:57:28;;;;;;;;;;;17.50;59.00;;;;;;4063649;29;20002;-88
2023/07/03 09:59:29;;;;;;;;;;;17.50;57.70;;;;;;4062991;29;20242;-85
2023/07/03 10:01:31;;;;;;;;;;;17.50;58.00;;;;;;4046223;29;19924;-81
2023/07/03 10:03:34;;;;;;;;;;;17.40;57.60;;;;;;4061456;29;19915;-81
2023/07/03 10:05:35;;;;;;;;;;;17.30;57.80;;;;;;4045067;29;19922;-81
2023/07/03 10:07:48;;;;;;;;;;;17.20;58.40;;;;;;4046410;29;19920;-81
2023/07/03 10:09:58;;;;;;;;;;;17.10;58.70;;;;;;4044314;29;19920;-83
2023/07/03 10:12:21;;;;;;;;;;;17.10;59.50;;;;;;4044192;29;20592;-83
2023/07/03 10:14:31;;;;;;;;;;;17.00;60.60;;;;;;4044620;29;19987;-80
2023/07/03 10:16:33;;;;;;;;;;;17.00;61.50;;;;;;4044632;29;19924;-81
2023/07/03 10:18:35;;;;;;;;;;;17.00;61.90;;;;;;4060006;29;19954;-80
2023/07/03 10:20:56;;;;;;;;;;;17.00;62.60;;;;;;4058880;29;20479;-79
2023/07/03 10:22:58;;;;;;;;;;;17.10;63.90;;;;;;4059591;29;19923;-82
2023/07/03 10:25:01;;;;;;;;;;;17.00;64.30;;;;;;4060210;29;20010;-80
2023/07/03 10:27:06;;;;;;;;;;;17.20;64.30;;;;;;4041754;29;20651;-81
2023/07/03 10:29:16;;;;;;;;;;;17.20;64.10;;;;;;4042717;29;19924;-81
2023/07/03 10:31:38;;;;;;;;;;;17.30;63.60;;;;;;4061254;29;19915;-82
2023/07/03 10:34:01;;;;;;;;;;;17.30;63.10;;;;;;4063627;29;19918;-83
2023/07/03 10:36:06;;;;;;;;;;;17.30;62.80;;;;;;4046422;29;20352;-84
2023/07/03 10:38:43;;;;;;;;;;;17.30;62.90;;;;;;4046535;29;19955;-81
2023/07/03 10:41:24;;;;;;;;;;;17.40;63.50;;;;;;4062187;29;19916;-82
2023/07/03 10:43:48;;;;;;;;;;;17.40;63.00;;;;;;4047859;29;19923;-82
2023/07/03 10:46:12;;;;;;;;;;;17.50;61.90;;;;;;4046960;29;19935;-83
2023/07/03 10:48:33;;;;;;;;;;;17.50;60.80;;;;;;4042821;29;19919;-81
2023/07/03 10:50:54;;;;;;;;;;;17.40;60.20;;;;;;4060632;29;19930;-83
2023/07/03 10:53:15;;;;;;;;;;;17.30;59.60;;;;;;4059449;29;19960;-84
2023/07/03 10:55:43;;;;;;;;;;;17.20;59.30;;;;;;4059112;29;19970;-82
2023/07/03 10:58:22;;;;;;;;;;;17.10;59.40;;;;;;4058425;29;19914;-81
2023/07/03 11:00:46;;;;;;;;;;;16.90;59.50;;;;;;4059502;29;19934;-83
2023/07/03 11:03:14;;;;;;;;;;;16.80;59.90;;;;;;4042251;29;20018;-81
2023/07/03 11:05:41;;;;;;;;;;;16.70;60.70;;;;;;4045998;29;19922;-81
2023/07/03 11:08:07;;;;;;;;;;;16.60;62.90;;;;;;4055833;29;19945;-80
2023/07/03 11:10:27;;;;;;;;;;;16.50;65.80;;;;;;4061172;29;19919;-81
2023/07/03 11:12:36;;;;;;;;;;;16.40;65.50;;;;;;4043254;29;19920;-82
2023/07/03 11:14:58;;;;;;;;;;;16.40;65.30;;;;;;4059490;29;19926;-82
2023/07/03 11:17:15;;;;;;;;;;;16.40;65.50;;;;;;4054271;29;19918;-81
2023/07/03 11:19:29;;;;;;;;;;;16.40;66.20;;;;;;4059946;29;19919;-81
2023/07/03 11:21:42;;;;;;;;;;;16.50;66.30;;;;;;4042705;29;19964;-80
2023/07/03 11:23:55;;;;;;;;;;;16.50;66.60;;;;;;4061088;29;19927;-82
2023/07/03 11:26:04;;;;;;;;;;;16.50;67.10;;;;;;4058284;29;19938;-80
2023/07/03 11:28:14;;;;;;;;;;;16.60;67.10;;;;;;4041942;29;20368;-81
2023/07/03 11:30:15;;;;;;;;;;;16.70;66.80;;;;;;4063544;29;19931;-82
2023/07/03 11:32:16;;;;;;;;;;;16.80;67.20;;;;;;4063421;29;20682;-82
2023/07/03 11:34:20;;;;;;;;;;;16.90;67.20;;;;;;4059316;29;20391;-83
2023/07/03 11:36:34;;;;;;;;;;;16.90;65.80;;;;;;4045282;29;19930;-83
2023/07/03 11:38:34;;;;;;;;;;;17.00;64.70;;;;;;4048966;29;19926;-83
2023/07/03 11:40:37;;;;;;;;;;;17.10;64.80;;;;;;4035831;29;20779;-82
2023/07/03 11:42:37;;;;;;;;;;;17.20;64.40;;;;;;4060835;29;19927;-83
2023/07/03 11:44:38;;;;;;;;;;;17.20;64.50;;;;;;4065582;29;19919;-82
2023/07/03 11:46:38;;;;;;;;;;;17.30;64.70;;;;;;4064504;29;19918;-81
2023/07/03 11:48:39;;;;;;;;;;;17.30;64.40;;;;;;4031040;29;19945;-83
2023/07/03 11:50:40;;;;;;;;;;;17.40;64.20;;;;;;4048849;29;19962;-83
2023/07/03 11:52:46;;;;;;;;;;;17.50;63.70;;;;;;4064475;29;19919;-81
2023/07/03 11:54:56;;;;;;;;;;;17.50;62.40;;;;;;4047564;29;20002;-82
2023/07/03 11:57:01;;;;;;;;;;;17.60;62.30;;;;;;4066500;29;19916;-81
2023/07/03 11:59:31;;;;;;;;;;;17.70;62.30;;;;;;4047793;29;19976;-82
2023/07/03 12:01:32;;;;;;;;;;;17.70;61.80;;;;;;4063781;29;19919;-82
2023/07/03 12:03:57;;;;;;;;;;;17.80;60.00;;;;;;4064335;29;19919;-81
2023/07/03 12:05:58;;;;;;;;;;;17.80;59.60;;;;;;4062369;29;19922;-83
2023/07/03 12:08:19;;;;;;;;;;;17.80;58.90;;;;;;4063937;29;19948;-83
2023/07/03 12:10:42;;;;;;;;;;;17.80;58.90;;;;;;4064476;29;19926;-83
2023/07/03 12:13:04;;;;;;;;;;;17.80;59.20;;;;;;4049005;29;19966;-83
2023/07/03 12:15:24;;;;;;;;;;;17.80;59.50;;;;;;4050352;29;19930;-83
2023/07/03 12:17:45;;;;;;;;;;;17.80;59.70;;;;;;4044908;29;19924;-82
2023/07/03 12:20:10;;;;;;;;;;;17.70;59.90;;;;;;4053330;29;20006;-83
2023/07/03 12:22:35;;;;;;;;;;;17.80;59.90;;;;;;4063588;29;20014;-81